Time;durP1;ratioP1;P1;durP2;ratioP2;P2;SDS_P1;SDS_P2;PMS_P1;PMS_P2;Temp;Humidity;BMP_temperature;BMP_pressure;BME280_temperature;BME280_humidity;BME280_pressure;Samples;Min_cycle;Max_cycle;Signal;HPM_P1;HPM_P2
2021/11/22 00:01:08;;;;;;;13.13;10.07;;;8.40;89.80;;;;;;4912484;29;20885;-44
2021/11/22 00:03:36;;;;;;;13.20;10.20;;;8.40;89.80;;;;;;4909456;29;20469;-44
2021/11/22 00:06:03;;;;;;;13.60;10.17;;;8.40;89.80;;;;;;4906868;29;20540;-44
2021/11/22 00:08:30;;;;;;;16.60;11.10;;;8.40;89.80;;;;;;4908335;29;20865;-44
2021/11/22 00:10:57;;;;;;;14.30;10.83;;;8.30;89.80;;;;;;4895561;29;20527;-44
2021/11/22 00:13:24;;;;;;;15.33;10.70;;;8.30;89.80;;;;;;4910755;29;20836;-44
2021/11/22 00:15:53;;;;;;;11.87;8.80;;;8.40;89.80;;;;;;4911030;29;20461;-44
2021/11/22 00:18:20;;;;;;;10.70;8.43;;;8.40;89.80;;;;;;4907225;29;20926;-44
2021/11/22 00:20:47;;;;;;;15.30;9.47;;;8.40;89.80;;;;;;4909852;29;20464;-44
2021/11/22 00:23:14;;;;;;;13.70;10.20;;;8.30;89.80;;;;;;4910905;29;20555;-45
2021/11/22 00:25:41;;;;;;;11.23;8.90;;;8.30;89.80;;;;;;4900863;29;20917;-44
2021/11/22 00:28:08;;;;;;;13.10;10.33;;;8.30;89.80;;;;;;4907391;29;20475;-44
2021/11/22 00:30:35;;;;;;;9.63;8.37;;;8.30;89.80;;;;;;4911271;29;20496;-44
2021/11/22 00:33:03;;;;;;;14.00;9.00;;;8.30;89.80;;;;;;4893322;29;20465;-44
2021/11/22 00:35:33;;;;;;;12.63;9.17;;;8.40;89.80;;;;;;4914960;29;20475;-44
2021/11/22 00:38:04;;;;;;;11.80;8.97;;;8.40;89.80;;;;;;4895831;29;20837;-44
2021/11/22 00:40:35;;;;;;;11.77;8.53;;;8.40;89.80;;;;;;4914017;29;20548;-44
2021/11/22 00:43:04;;;;;;;12.63;9.00;;;8.40;89.80;;;;;;4911742;29;20457;-44
2021/11/22 00:45:31;;;;;;;10.97;8.80;;;8.40;89.80;;;;;;4914041;29;20459;-44
2021/11/22 00:47:59;;;;;;;15.03;10.17;;;8.40;89.80;;;;;;4912084;29;20833;-44
2021/11/22 00:50:27;;;;;;;11.40;8.70;;;8.30;89.80;;;;;;4909520;29;20452;-44
2021/11/22 00:52:54;;;;;;;11.80;8.40;;;8.30;89.80;;;;;;4907687;29;20497;-44
2021/11/22 00:55:22;;;;;;;12.17;9.30;;;8.30;89.80;;;;;;4910265;29;20481;-44
2021/11/22 00:57:49;;;;;;;12.00;9.60;;;8.30;89.80;;;;;;4909295;29;20475;-44
2021/11/22 01:00:20;;;;;;;13.60;10.03;;;8.30;89.80;;;;;;4892823;29;20823;-44
2021/11/22 01:02:47;;;;;;;11.10;8.40;;;8.30;89.80;;;;;;4909398;29;20475;-44
2021/11/22 01:05:14;;;;;;;13.87;9.97;;;8.40;89.80;;;;;;4908138;29;20467;-44
2021/11/22 01:07:42;;;;;;;12.50;8.43;;;8.30;89.80;;;;;;4908042;29;20472;-44
2021/11/22 01:10:10;;;;;;;11.47;8.30;;;8.30;89.80;;;;;;4907109;29;20464;-44
2021/11/22 01:12:37;;;;;;;8.60;7.47;;;8.30;89.80;;;;;;4908085;29;20963;-44
2021/11/22 01:15:09;;;;;;;11.57;7.73;;;8.40;89.80;;;;;;4906459;29;20469;-44
2021/11/22 01:17:36;;;;;;;12.23;8.57;;;8.30;89.80;;;;;;4910363;29;20974;-44
2021/11/22 01:20:06;;;;;;;13.60;8.80;;;8.30;89.80;;;;;;4911105;29;20453;-44
2021/11/22 01:22:33;;;;;;;12.93;8.83;;;8.30;89.80;;;;;;4921040;29;20467;-44
2021/11/22 01:24:59;;;;;;;12.77;7.63;;;8.30;89.80;;;;;;4904421;29;20460;-45
2021/11/22 01:27:45;;;;;;;13.07;8.10;;;8.30;89.80;;;;;;4912511;29;20473;-44
2021/11/22 01:30:12;;;;;;;12.20;7.33;;;8.30;89.80;;;;;;4910781;29;21073;-44
2021/11/22 01:32:41;;;;;;;11.30;7.30;;;8.30;89.80;;;;;;4890478;29;20491;-44
2021/11/22 01:35:09;;;;;;;11.03;6.97;;;8.30;89.80;;;;;;4907524;29;20464;-44
2021/11/22 01:37:36;;;;;;;12.47;5.60;;;8.30;89.80;;;;;;4893009;29;20464;-44
2021/11/22 01:40:05;;;;;;;6.93;5.27;;;8.30;89.70;;;;;;4910180;29;20472;-44
2021/11/22 01:42:31;;;;;;;4.80;4.30;;;8.30;89.40;;;;;;4906981;29;20833;-44
2021/11/22 01:44:58;;;;;;;6.10;4.90;;;8.30;89.10;;;;;;4907789;29;20469;-44
2021/11/22 01:47:25;;;;;;;5.93;4.00;;;8.30;89.40;;;;;;4921559;29;20472;-44
2021/11/22 01:49:52;;;;;;;7.30;4.07;;;8.30;89.20;;;;;;4897810;29;20495;-44
2021/11/22 01:52:18;;;;;;;7.43;4.33;;;8.30;89.00;;;;;;4907291;29;20492;-44
2021/11/22 01:54:45;;;;;;;4.43;3.70;;;8.30;89.10;;;;;;4907369;29;20477;-44
2021/11/22 01:57:12;;;;;;;4.43;3.83;;;8.30;88.80;;;;;;4890098;29;20481;-44
2021/11/22 01:59:39;;;;;;;6.90;4.20;;;8.20;89.00;;;;;;4908393;29;20852;-44
2021/11/22 02:02:06;;;;;;;11.50;4.60;;;8.20;89.20;;;;;;4905479;29;20461;-44
2021/11/22 02:04:33;;;;;;;7.47;4.20;;;8.20;89.00;;;;;;4904670;29;20550;-44
2021/11/22 02:07:00;;;;;;;5.13;3.50;;;8.20;89.00;;;;;;4880981;29;20461;-44
2021/11/22 02:09:27;;;;;;;5.27;3.80;;;8.20;88.70;;;;;;4905156;29;20527;-44
2021/11/22 02:11:54;;;;;;;8.57;3.70;;;8.20;89.00;;;;;;4906481;29;20481;-44
2021/11/22 02:14:21;;;;;;;5.57;3.77;;;8.20;88.70;;;;;;4916074;29;21002;-45
2021/11/22 02:16:48;;;;;;;8.30;3.80;;;8.20;88.60;;;;;;4893346;29;20983;-45
2021/11/22 02:19:14;;;;;;;6.63;3.60;;;8.20;88.60;;;;;;4907555;29;20489;-45
2021/11/22 02:21:43;;;;;;;4.87;3.70;;;8.10;88.80;;;;;;4909229;29;20491;-45
2021/11/22 02:24:10;;;;;;;5.27;3.10;;;8.10;88.80;;;;;;4910589;29;20877;-45
2021/11/22 02:26:37;;;;;;;7.93;3.70;;;8.20;88.20;;;;;;4912142;29;20469;-45
2021/11/22 02:29:05;;;;;;;5.90;3.73;;;8.10;88.20;;;;;;4914072;29;20465;-45
2021/11/22 02:31:32;;;;;;;5.60;4.00;;;8.10;88.30;;;;;;4909972;29;20496;-45
2021/11/22 02:33:59;;;;;;;6.93;4.43;;;8.00;88.50;;;;;;4907094;29;20492;-45
2021/11/22 02:36:26;;;;;;;6.50;3.73;;;8.00;88.30;;;;;;4904112;29;20465;-45
2021/11/22 02:38:53;;;;;;;10.73;3.40;;;8.00;88.40;;;;;;4905656;29;20581;-45
2021/11/22 02:41:20;;;;;;;7.97;3.67;;;8.00;88.10;;;;;;4890086;29;20476;-45
2021/11/22 02:43:47;;;;;;;6.67;4.17;;;8.00;87.80;;;;;;4909544;29;20479;-45
2021/11/22 02:46:14;;;;;;;7.10;3.43;;;8.00;87.50;;;;;;4891263;29;20676;-45
2021/11/22 02:48:42;;;;;;;9.00;3.73;;;8.10;87.30;;;;;;4905888;29;20477;-45
2021/11/22 02:51:10;;;;;;;4.10;3.33;;;8.00;87.40;;;;;;4910448;29;20491;-45
2021/11/22 02:53:38;;;;;;;7.13;3.20;;;8.10;87.50;;;;;;4890620;29;20844;-45
2021/11/22 02:56:08;;;;;;;5.23;3.37;;;8.00;87.50;;;;;;4908692;29;20485;-45
2021/11/22 02:58:37;;;;;;;6.27;3.40;;;8.00;87.80;;;;;;4910413;29;20956;-45
2021/11/22 03:01:07;;;;;;;3.70;3.33;;;7.90;88.00;;;;;;4900619;29;20469;-44
2021/11/22 03:03:37;;;;;;;9.90;4.10;;;7.90;88.30;;;;;;4912002;29;20468;-45
2021/11/22 03:06:13;;;;;;;6.07;3.20;;;7.90;88.00;;;;;;4908167;29;20465;-45
2021/11/22 03:08:43;;;;;;;2.60;2.23;;;8.00;87.70;;;;;;4909383;29;20487;-44
2021/11/22 03:11:11;;;;;;;3.47;2.77;;;7.90;87.90;;;;;;4908825;29;20460;-45
2021/11/22 03:13:40;;;;;;;7.57;2.80;;;7.90;88.00;;;;;;4909110;29;20463;-45
2021/11/22 03:16:07;;;;;;;7.10;3.00;;;7.90;87.90;;;;;;4910519;29;21035;-44
2021/11/22 03:18:34;;;;;;;6.80;2.70;;;7.90;87.70;;;;;;4910710;29;20472;-44
2021/11/22 03:21:02;;;;;;;8.40;3.63;;;7.90;87.60;;;;;;4909285;29;20814;-44
2021/11/22 03:23:31;;;;;;;3.63;2.40;;;7.90;87.80;;;;;;4906225;29;20959;-44
2021/11/22 03:25:58;;;;;;;4.30;2.83;;;7.90;87.70;;;;;;4905972;29;20460;-44
2021/11/22 03:28:26;;;;;;;4.03;3.40;;;7.90;87.80;;;;;;4907219;29;20465;-44
2021/11/22 03:30:53;;;;;;;7.07;3.10;;;7.90;87.70;;;;;;4906301;29;20947;-44
2021/11/22 03:33:21;;;;;;;7.00;3.30;;;7.90;87.20;;;;;;4885411;29;20737;-44
2021/11/22 03:35:51;;;;;;;8.47;2.70;;;7.90;87.20;;;;;;4905195;29;20463;-44
2021/11/22 03:38:20;;;;;;;5.10;2.53;;;7.90;86.90;;;;;;4905226;29;20953;-44
2021/11/22 03:40:49;;;;;;;7.73;4.20;;;7.90;87.10;;;;;;4906091;29;20826;-44
2021/11/22 03:43:26;;;;;;;4.07;2.00;;;7.90;87.00;;;;;;4904361;29;20464;-44
2021/11/22 03:45:53;;;;;;;4.70;2.77;;;7.90;87.20;;;;;;4892877;29;20527;-44
2021/11/22 03:48:20;;;;;;;6.80;2.30;;;7.80;87.20;;;;;;4904841;29;20631;-44
2021/11/22 03:50:47;;;;;;;7.13;3.03;;;7.90;87.10;;;;;;4887688;29;20992;-44
2021/11/22 03:53:15;;;;;;;3.93;2.53;;;7.90;87.00;;;;;;4905826;29;20504;-44
2021/11/22 03:55:42;;;;;;;5.63;2.30;;;7.80;87.10;;;;;;4905184;29;20579;-44
2021/11/22 03:58:09;;;;;;;5.43;3.03;;;7.80;87.50;;;;;;4905382;29;20461;-44
2021/11/22 04:00:36;;;;;;;6.70;3.17;;;7.80;87.20;;;;;;4902954;29;20456;-44
2021/11/22 04:03:03;;;;;;;6.80;2.57;;;7.80;87.40;;;;;;4905159;29;20530;-44
2021/11/22 04:05:30;;;;;;;4.30;2.77;;;7.90;87.20;;;;;;4906468;29;20858;-44
2021/11/22 04:07:57;;;;;;;5.50;2.40;;;7.90;87.00;;;;;;4902526;29;20555;-44
2021/11/22 04:10:24;;;;;;;4.67;2.87;;;7.90;87.00;;;;;;4902462;29;20469;-44
2021/11/22 04:12:51;;;;;;;11.00;3.30;;;7.90;86.90;;;;;;4904924;29;20610;-44
2021/11/22 04:15:19;;;;;;;10.30;3.43;;;7.80;87.00;;;;;;4904327;29;20500;-44
2021/11/22 04:17:46;;;;;;;9.60;3.90;;;7.90;86.70;;;;;;4905816;29;20497;-44
2021/11/22 04:20:13;;;;;;;5.97;3.13;;;7.90;86.60;;;;;;4901717;29;20670;-44
2021/11/22 04:22:40;;;;;;;3.17;2.80;;;7.90;86.10;;;;;;4906133;29;20980;-44
2021/11/22 04:25:07;;;;;;;4.83;3.17;;;7.90;86.10;;;;;;4888988;29;20818;-44
2021/11/22 04:27:35;;;;;;;8.80;3.13;;;7.90;86.30;;;;;;4901281;29;20464;-44
2021/11/22 04:30:05;;;;;;;7.40;2.80;;;7.80;86.10;;;;;;4905601;29;20473;-44
2021/11/22 04:32:32;;;;;;;5.93;2.77;;;7.80;86.00;;;;;;4900749;29;20846;-44
2021/11/22 04:34:59;;;;;;;16.47;3.50;;;7.80;86.30;;;;;;4905132;29;20490;-44
2021/11/22 04:37:28;;;;;;;4.20;2.67;;;7.80;86.40;;;;;;4905398;29;20464;-44
2021/11/22 04:39:55;;;;;;;9.10;2.70;;;7.80;86.30;;;;;;4904991;29;20472;-44
2021/11/22 04:42:22;;;;;;;6.37;3.13;;;7.80;86.00;;;;;;4884628;29;20469;-44
2021/11/22 04:44:49;;;;;;;5.37;2.33;;;7.80;86.00;;;;;;4917977;29;20457;-44
2021/11/22 04:47:19;;;;;;;4.00;2.37;;;7.80;85.80;;;;;;4905201;29;20464;-44
2021/11/22 04:49:48;;;;;;;12.53;2.90;;;7.80;85.80;;;;;;4903460;29;20473;-44
2021/11/22 04:52:15;;;;;;;3.27;2.80;;;7.80;85.90;;;;;;4900329;29;20489;-44
2021/11/22 04:54:42;;;;;;;13.37;3.23;;;7.80;85.90;;;;;;4891942;29;20461;-43
2021/11/22 04:57:09;;;;;;;11.27;3.10;;;7.80;85.70;;;;;;4905156;29;20485;-44
2021/11/22 04:59:37;;;;;;;4.77;2.67;;;7.80;85.50;;;;;;4889895;29;21078;-44
2021/11/22 05:02:05;;;;;;;5.10;2.60;;;7.70;85.90;;;;;;4902587;29;20976;-44
2021/11/22 05:04:32;;;;;;;3.87;2.70;;;7.70;85.90;;;;;;4905794;29;20851;-44
2021/11/22 05:06:59;;;;;;;4.37;2.70;;;7.80;85.50;;;;;;4902914;29;20469;-44
2021/11/22 05:09:26;;;;;;;4.07;3.00;;;7.80;85.20;;;;;;4915305;29;20509;-44
2021/11/22 05:11:53;;;;;;;6.13;2.80;;;7.70;85.30;;;;;;4903889;29;21435;-44
2021/11/22 05:14:20;;;;;;;7.03;3.03;;;7.70;85.40;;;;;;4887363;29;20467;-44
2021/11/22 05:16:46;;;;;;;3.67;2.30;;;7.60;85.50;;;;;;4903560;29;20471;-44
2021/11/22 05:19:14;;;;;;;4.27;3.30;;;7.60;85.50;;;;;;4901960;29;20987;-44
2021/11/22 05:21:41;;;;;;;5.30;2.93;;;7.60;85.50;;;;;;4886597;29;20469;-44
2021/11/22 05:24:09;;;;;;;3.20;2.73;;;7.70;85.40;;;;;;4891275;29;20465;-44
2021/11/22 05:26:36;;;;;;;4.47;2.90;;;7.70;85.00;;;;;;4904737;29;20988;-44
2021/11/22 05:29:06;;;;;;;4.43;3.00;;;7.70;85.00;;;;;;4889391;29;20548;-44
2021/11/22 05:31:33;;;;;;;5.07;3.27;;;7.70;84.80;;;;;;4903144;29;20463;-44
2021/11/22 05:34:00;;;;;;;9.50;3.47;;;7.60;84.60;;;;;;4899796;29;20489;-44
2021/11/22 05:36:27;;;;;;;5.93;2.63;;;7.60;84.60;;;;;;4888362;29;20461;-44
2021/11/22 05:38:54;;;;;;;6.87;3.33;;;7.50;84.70;;;;;;4899227;29;20471;-44
2021/11/22 05:41:21;;;;;;;4.77;3.03;;;7.50;84.70;;;;;;4887709;29;20465;-44
2021/11/22 05:43:48;;;;;;;4.47;2.50;;;7.50;84.50;;;;;;4904321;29;20472;-44
2021/11/22 05:46:15;;;;;;;4.60;3.20;;;7.50;83.90;;;;;;4904241;29;20457;-44
2021/11/22 05:48:41;;;;;;;6.43;2.77;;;7.50;83.80;;;;;;4883111;29;20467;-44
2021/11/22 05:51:10;;;;;;;4.70;2.80;;;7.40;83.90;;;;;;4903183;29;20476;-44
2021/11/22 05:53:41;;;;;;;6.30;2.97;;;7.40;84.00;;;;;;4888593;29;20488;-44
2021/11/22 05:56:08;;;;;;;5.83;3.40;;;7.40;83.60;;;;;;4900486;29;20503;-44
2021/11/22 05:58:36;;;;;;;4.70;2.63;;;7.30;84.00;;;;;;4904260;29;20901;-44
2021/11/22 06:01:05;;;;;;;5.63;3.20;;;7.30;83.70;;;;;;4884924;29;20467;-44
2021/11/22 06:03:32;;;;;;;3.30;3.00;;;7.30;83.50;;;;;;4901695;29;20991;-44
2021/11/22 06:05:59;;;;;;;8.00;3.17;;;7.20;83.90;;;;;;4903902;29;20834;-44
2021/11/22 06:08:27;;;;;;;9.33;3.70;;;7.20;84.30;;;;;;4904302;29;20476;-44
2021/11/22 06:10:53;;;;;;;5.53;2.97;;;7.20;84.40;;;;;;4903058;29;20830;-44
2021/11/22 06:13:21;;;;;;;8.20;3.30;;;7.20;84.10;;;;;;4886604;29;20492;-44
2021/11/22 06:15:49;;;;;;;7.47;3.00;;;7.20;84.40;;;;;;4903266;29;20460;-44
2021/11/22 06:18:17;;;;;;;9.03;3.40;;;7.10;84.40;;;;;;4902319;29;20461;-44
2021/11/22 06:20:44;;;;;;;6.70;3.60;;;7.10;84.30;;;;;;4905634;29;20469;-44
2021/11/22 06:23:11;;;;;;;3.40;2.53;;;7.10;84.30;;;;;;4903189;29;21023;-44
2021/11/22 06:25:38;;;;;;;5.67;3.80;;;7.00;84.40;;;;;;4905900;29;20475;-44
2021/11/22 06:28:05;;;;;;;7.60;3.23;;;7.00;84.40;;;;;;4907276;29;20475;-44
2021/11/22 06:30:32;;;;;;;6.03;2.93;;;7.00;84.30;;;;;;4906637;29;20469;-44
2021/11/22 06:32:59;;;;;;;5.73;3.07;;;7.00;84.20;;;;;;4902955;29;20501;-44
2021/11/22 06:35:29;;;;;;;10.27;3.10;;;7.00;84.00;;;;;;4906909;29;20917;-44
2021/11/22 06:37:56;;;;;;;4.63;2.60;;;7.00;84.10;;;;;;4900401;29;20465;-44
2021/11/22 06:40:23;;;;;;;6.23;3.07;;;7.00;84.00;;;;;;4904964;29;20927;-43
2021/11/22 06:42:50;;;;;;;7.63;3.10;;;7.00;83.90;;;;;;4905658;29;20472;-44
2021/11/22 06:45:18;;;;;;;4.37;2.50;;;6.90;84.10;;;;;;4896092;29;20464;-44
2021/11/22 06:47:46;;;;;;;2.77;2.50;;;6.90;84.30;;;;;;4899191;29;20467;-43
2021/11/22 06:50:13;;;;;;;3.40;3.10;;;6.90;84.50;;;;;;4890124;29;20476;-43
2021/11/22 06:52:40;;;;;;;3.37;2.93;;;6.80;84.70;;;;;;4902950;29;21260;-43
2021/11/22 06:55:07;;;;;;;7.23;3.57;;;6.90;84.80;;;;;;4906392;29;20461;-43
2021/11/22 06:57:34;;;;;;;4.00;2.97;;;6.80;84.90;;;;;;4906951;29;20465;-43
2021/11/22 07:00:03;;;;;;;6.27;3.30;;;6.90;84.90;;;;;;4887936;29;20472;-43
2021/11/22 07:02:30;;;;;;;4.90;3.57;;;6.80;85.00;;;;;;4889594;29;20467;-43
2021/11/22 07:04:57;;;;;;;5.30;4.03;;;6.80;85.20;;;;;;4898268;29;20473;-44
2021/11/22 07:07:25;;;;;;;7.60;2.80;;;6.80;85.10;;;;;;4904217;29;20976;-44
2021/11/22 07:09:52;;;;;;;7.20;3.43;;;6.90;85.10;;;;;;4903315;29;20502;-44
2021/11/22 07:12:19;;;;;;;6.67;3.50;;;6.90;85.00;;;;;;4902583;29;20842;-43
2021/11/22 07:14:46;;;;;;;4.07;3.07;;;6.80;85.00;;;;;;4885090;29;20461;-43
2021/11/22 07:17:14;;;;;;;11.00;3.43;;;6.80;84.90;;;;;;4904703;29;20476;-43
2021/11/22 07:19:42;;;;;;;7.50;4.60;;;6.80;84.90;;;;;;4906148;29;20468;-43
2021/11/22 07:22:09;;;;;;;15.33;3.43;;;6.80;84.80;;;;;;4903303;29;20477;-44
2021/11/22 07:24:41;;;;;;;7.80;3.20;;;6.90;84.50;;;;;;4885408;29;21020;-44
2021/11/22 07:27:10;;;;;;;6.40;2.90;;;6.80;84.50;;;;;;4905271;29;20465;-44
2021/11/22 07:29:38;;;;;;;6.10;3.47;;;6.80;84.20;;;;;;4904041;29;20467;-44
2021/11/22 07:32:05;;;;;;;10.97;3.53;;;6.80;84.60;;;;;;4900250;29;20560;-44
2021/11/22 07:34:33;;;;;;;5.47;3.47;;;6.80;84.70;;;;;;4905078;29;20511;-44
2021/11/22 07:36:59;;;;;;;7.63;3.30;;;6.80;84.60;;;;;;4903319;29;20980;-44
2021/11/22 07:39:27;;;;;;;4.80;3.20;;;6.80;84.10;;;;;;4885469;29;20512;-44
2021/11/22 07:41:56;;;;;;;4.40;3.73;;;6.80;84.20;;;;;;4898540;29;20466;-44
2021/11/22 07:44:25;;;;;;;8.77;3.20;;;6.70;84.40;;;;;;4905521;29;20456;-44
2021/11/22 07:46:53;;;;;;;13.87;3.27;;;6.70;84.50;;;;;;4904261;29;20461;-44
2021/11/22 07:49:20;;;;;;;4.67;3.13;;;6.70;84.60;;;;;;4903726;29;20922;-43
2021/11/22 07:51:47;;;;;;;6.00;3.57;;;6.70;84.60;;;;;;4896922;29;20533;-43
2021/11/22 07:54:15;;;;;;;6.53;3.10;;;6.70;84.60;;;;;;4885779;29;20495;-42
2021/11/22 07:56:43;;;;;;;4.23;3.20;;;6.70;84.70;;;;;;4886060;29;20488;-42
2021/11/22 07:59:10;;;;;;;5.00;3.27;;;6.70;84.80;;;;;;4909692;29;20460;-42
2021/11/22 08:01:37;;;;;;;5.57;3.47;;;6.70;85.00;;;;;;4909464;29;20859;-42
2021/11/22 08:04:04;;;;;;;4.30;2.80;;;6.70;84.80;;;;;;4909268;29;20457;-42
2021/11/22 08:06:31;;;;;;;3.73;3.03;;;6.70;84.70;;;;;;4889554;29;20469;-42
2021/11/22 08:08:58;;;;;;;4.00;2.73;;;6.70;84.80;;;;;;4910392;29;20472;-42
2021/11/22 08:13:53;;;;;;;3.83;3.20;;;6.80;84.60;;;;;;4905289;29;20500;-42
2021/11/22 08:16:20;;;;;;;6.70;3.50;;;6.80;84.30;;;;;;4893433;29;21165;-41
2021/11/22 08:18:48;;;;;;;3.67;2.97;;;6.90;84.30;;;;;;4907807;29;20465;-42
2021/11/22 08:21:16;;;;;;;4.00;3.47;;;6.90;84.00;;;;;;4886808;29;20460;-42
2021/11/22 08:23:43;;;;;;;6.33;3.50;;;6.90;84.40;;;;;;4909460;29;20468;-42
2021/11/22 08:26:09;;;;;;;8.17;3.20;;;6.90;84.10;;;;;;4901845;29;20457;-42
2021/11/22 08:28:36;;;;;;;4.73;3.53;;;7.00;83.90;;;;;;4906567;29;20465;-42
2021/11/22 08:31:04;;;;;;;6.30;3.13;;;7.00;83.70;;;;;;4905127;29;21748;-42
2021/11/22 08:33:30;;;;;;;7.43;4.00;;;7.00;83.70;;;;;;4900041;29;20485;-42
2021/11/22 08:35:57;;;;;;;5.93;3.47;;;7.00;83.70;;;;;;4903186;29;20469;-42
2021/11/22 08:38:24;;;;;;;3.87;3.40;;;7.10;84.10;;;;;;4901592;29;20471;-42
2021/11/22 08:40:51;;;;;;;5.63;3.83;;;7.10;84.00;;;;;;4906781;29;20463;-42
2021/11/22 08:43:24;;;;;;;3.07;2.60;;;7.10;83.60;;;;;;4905422;29;20496;-42
2021/11/22 08:45:51;;;;;;;5.77;3.50;;;7.20;84.00;;;;;;4907742;29;20484;-42
2021/11/22 08:48:20;;;;;;;3.57;2.20;;;7.20;83.50;;;;;;4909387;29;21007;-42
2021/11/22 08:50:47;;;;;;;2.80;2.47;;;7.20;83.00;;;;;;4893361;29;20492;-42
2021/11/22 08:53:14;;;;;;;2.50;2.10;;;7.20;83.20;;;;;;4893347;29;20504;-42
2021/11/22 08:55:41;;;;;;;2.47;2.27;;;7.20;83.10;;;;;;4903239;29;20931;-42
2021/11/22 08:58:08;;;;;;;4.40;2.20;;;7.30;82.40;;;;;;4903877;29;20461;-42
2021/11/22 09:00:38;;;;;;;4.80;2.00;;;7.30;82.30;;;;;;4899994;29;20465;-42
2021/11/22 09:03:06;;;;;;;2.20;1.50;;;7.40;82.60;;;;;;4892817;29;20905;-42
2021/11/22 09:05:33;;;;;;;4.20;2.00;;;7.40;82.20;;;;;;4889954;29;20484;-41
2021/11/22 09:08:00;;;;;;;1.53;1.43;;;7.40;81.80;;;;;;4891300;29;20473;-41
2021/11/22 09:10:27;;;;;;;1.97;1.87;;;7.50;81.10;;;;;;4890729;29;20457;-41
2021/11/22 09:12:54;;;;;;;3.73;2.20;;;7.60;80.90;;;;;;4908917;29;20487;-41
2021/11/22 09:15:22;;;;;;;1.77;1.60;;;7.60;80.80;;;;;;4887142;29;20562;-41
2021/11/22 09:17:53;;;;;;;4.20;2.53;;;7.60;80.40;;;;;;4907246;29;22020;-42
2021/11/22 09:20:20;;;;;;;2.30;1.93;;;7.60;80.00;;;;;;4908220;29;20847;-42
2021/11/22 09:22:48;;;;;;;4.80;1.93;;;7.70;80.60;;;;;;4908968;29;20477;-42
2021/11/22 09:25:15;;;;;;;2.17;1.87;;;7.80;80.80;;;;;;4906466;29;20461;-42
2021/11/22 09:27:42;;;;;;;3.10;2.63;;;7.90;81.00;;;;;;4891985;29;20450;-42
2021/11/22 09:30:09;;;;;;;2.67;2.47;;;8.00;80.30;;;;;;4907017;29;20461;-42
2021/11/22 09:32:36;;;;;;;2.77;2.57;;;8.10;79.70;;;;;;4907616;29;21047;-42
2021/11/22 09:35:04;;;;;;;2.33;1.73;;;8.20;77.60;;;;;;4887353;29;20888;-41
2021/11/22 09:37:33;;;;;;;1.47;1.37;;;8.50;76.90;;;;;;4905605;29;20485;-42
2021/11/22 09:40:01;;;;;;;3.30;2.47;;;8.70;76.60;;;;;;4892048;29;20508;-42
2021/11/22 09:42:27;;;;;;;1.73;1.43;;;8.90;76.20;;;;;;4908694;29;20460;-41
2021/11/22 09:44:54;;;;;;;1.60;1.50;;;9.00;74.70;;;;;;4908528;29;20472;-42
2021/11/22 09:47:21;;;;;;;2.73;1.63;;;9.10;73.30;;;;;;4905688;29;20980;-42
2021/11/22 09:49:53;;;;;;;2.83;1.40;;;9.30;72.40;;;;;;4906851;29;20484;-42
2021/11/22 09:52:25;;;;;;;2.03;1.53;;;9.40;73.00;;;;;;4890595;29;20842;-42
2021/11/22 09:54:52;;;;;;;1.53;1.40;;;9.50;72.90;;;;;;4911342;29;20496;-42
2021/11/22 09:57:19;;;;;;;1.63;1.53;;;9.40;73.10;;;;;;4910015;29;20479;-42
2021/11/22 09:59:45;;;;;;;3.67;2.43;;;9.40;72.70;;;;;;4910582;29;21002;-42
2021/11/22 10:02:12;;;;;;;1.43;1.30;;;9.40;72.20;;;;;;4909407;29;20469;-42
2021/11/22 10:04:39;;;;;;;1.40;1.17;;;9.50;72.70;;;;;;4908503;29;20500;-42
2021/11/22 10:07:09;;;;;;;1.50;1.40;;;9.50;71.10;;;;;;4909792;29;20892;-42
2021/11/22 10:09:39;;;;;;;1.70;1.60;;;9.40;71.50;;;;;;4912596;29;20468;-42
2021/11/22 10:12:28;;;;;;;1.10;1.00;;;9.30;71.50;;;;;;4912622;29;20556;-42
2021/11/22 10:14:58;;;;;;;1.43;1.33;;;9.30;72.00;;;;;;4912671;29;20488;-42
2021/11/22 10:17:33;;;;;;;1.47;1.30;;;9.20;72.20;;;;;;4912315;29;20456;-42
2021/11/22 10:20:06;;;;;;;1.13;1.10;;;9.20;72.40;;;;;;4909951;29;20479;-42
2021/11/22 10:23:07;;;;;;;1.60;1.50;;;9.10;72.10;;;;;;4907904;29;20475;-42
2021/11/22 10:25:44;;;;;;;1.30;1.20;;;9.10;72.60;;;;;;4911408;29;20469;-42
2021/11/22 10:28:21;;;;;;;1.13;1.13;;;9.10;72.10;;;;;;4897260;29;20456;-42
2021/11/22 10:30:53;;;;;;;1.93;1.17;;;9.10;71.50;;;;;;4910038;29;20921;-43
2021/11/22 10:33:24;;;;;;;1.00;1.00;;;9.10;71.40;;;;;;4894888;29;20836;-42
2021/11/22 10:35:53;;;;;;;1.47;1.37;;;9.00;70.90;;;;;;4906174;29;20825;-42
2021/11/22 10:38:24;;;;;;;1.13;1.13;;;8.90;70.20;;;;;;4909613;29;20519;-42
2021/11/22 10:40:55;;;;;;;1.10;1.00;;;8.80;70.70;;;;;;4910150;29;20883;-42
2021/11/22 10:43:22;;;;;;;1.10;1.10;;;8.80;71.70;;;;;;4907943;29;20461;-42
2021/11/22 10:45:52;;;;;;;3.00;1.30;;;8.80;71.30;;;;;;4902139;29;20473;-42
2021/11/22 10:48:26;;;;;;;1.23;1.17;;;8.80;71.30;;;;;;4905834;29;21098;-42
2021/11/22 10:51:15;;;;;;;0.97;0.97;;;8.80;70.30;;;;;;4908693;29;20468;-41
2021/11/22 10:53:51;;;;;;;1.03;1.03;;;8.80;71.30;;;;;;4907979;29;20528;-42
2021/11/22 10:56:21;;;;;;;1.37;1.27;;;8.70;71.70;;;;;;4910586;29;20562;-41
2021/11/22 10:58:56;;;;;;;1.40;1.30;;;8.70;71.40;;;;;;4909440;29;20771;-41
2021/11/22 11:01:31;;;;;;;2.27;1.43;;;8.70;71.60;;;;;;4908931;29;20843;-41
2021/11/22 11:04:13;;;;;;;1.00;1.00;;;8.70;71.20;;;;;;4911958;29;21003;-42
2021/11/22 11:06:44;;;;;;;1.00;0.97;;;8.70;71.70;;;;;;4909572;29;20483;-43
2021/11/22 11:09:17;;;;;;;1.33;1.00;;;8.70;71.90;;;;;;4910085;29;20465;-42
2021/11/22 11:11:45;;;;;;;2.10;0.93;;;8.70;72.10;;;;;;4891818;29;20510;-41
2021/11/22 11:14:15;;;;;;;1.20;1.10;;;8.70;71.80;;;;;;4908943;29;20865;-43
2021/11/22 11:16:43;;;;;;;1.13;1.10;;;8.70;72.40;;;;;;4896213;29;20493;-43
2021/11/22 11:19:14;;;;;;;0.77;0.77;;;8.70;72.70;;;;;;4910783;29;20492;-43
2021/11/22 11:21:47;;;;;;;1.53;1.03;;;8.80;72.10;;;;;;4891154;29;20465;-42
2021/11/22 11:24:16;;;;;;;1.17;0.90;;;8.80;71.30;;;;;;4894563;29;20461;-41
2021/11/22 11:26:46;;;;;;;2.00;1.17;;;8.80;71.50;;;;;;4894745;29;20547;-41
2021/11/22 11:29:13;;;;;;;0.80;0.80;;;8.90;71.20;;;;;;4894501;29;20465;-42
2021/11/22 11:31:41;;;;;;;1.00;1.00;;;8.90;71.30;;;;;;4891410;29;20473;-41
2021/11/22 11:34:13;;;;;;;1.27;1.17;;;8.90;71.40;;;;;;4910382;29;20492;-42
2021/11/22 11:36:53;;;;;;;0.90;0.90;;;8.90;71.80;;;;;;4908889;29;20483;-42
2021/11/22 11:39:53;;;;;;;1.20;0.70;;;8.90;70.60;;;;;;4907928;29;20464;-42
2021/11/22 11:42:38;;;;;;;1.23;0.80;;;8.90;70.30;;;;;;4908140;29;20473;-42
2021/11/22 11:45:09;;;;;;;0.87;0.87;;;9.00;70.50;;;;;;4892454;29;20476;-42
2021/11/22 11:48:03;;;;;;;1.03;1.03;;;9.00;70.00;;;;;;4909450;29;20473;-42
2021/11/22 11:50:37;;;;;;;0.90;0.90;;;8.90;69.70;;;;;;4895294;29;20491;-42
2021/11/22 11:53:23;;;;;;;1.30;1.00;;;8.90;70.50;;;;;;4894943;29;20464;-42
2021/11/22 11:56:52;;;;;;;1.17;1.07;;;8.90;69.90;;;;;;4894485;29;20500;-42
2021/11/22 11:59:40;;;;;;;1.20;1.20;;;8.90;70.50;;;;;;4782520;29;20466;-42
2021/11/22 12:02:23;;;;;;;2.03;1.83;;;9.00;69.20;;;;;;4910362;29;20460;-42
2021/11/22 12:04:57;;;;;;;1.13;0.90;;;8.90;67.40;;;;;;4910293;29;20465;-42
2021/11/22 12:07:50;;;;;;;1.10;0.90;;;8.90;67.70;;;;;;4909045;29;21109;-42
2021/11/22 12:10:22;;;;;;;1.43;0.93;;;9.00;69.40;;;;;;4904026;29;20988;-42
2021/11/22 12:12:57;;;;;;;0.70;0.60;;;9.00;69.00;;;;;;4906491;29;20468;-42
2021/11/22 12:15:45;;;;;;;1.57;1.10;;;9.00;69.60;;;;;;4908668;29;20496;-42
2021/11/22 12:18:33;;;;;;;2.03;1.00;;;9.00;69.20;;;;;;4907072;29;20796;-42
2021/11/22 12:21:18;;;;;;;1.80;1.00;;;9.10;70.00;;;;;;4909714;29;20449;-42
2021/11/22 12:23:56;;;;;;;0.60;0.60;;;9.10;69.70;;;;;;4909572;29;20875;-42
2021/11/22 12:26:36;;;;;;;0.83;0.83;;;9.10;69.00;;;;;;4908643;29;20828;-42
2021/11/22 12:29:06;;;;;;;0.80;0.80;;;9.10;69.20;;;;;;4909944;29;20448;-42
2021/11/22 12:31:42;;;;;;;2.50;1.10;;;9.10;69.40;;;;;;4909051;29;21059;-42
2021/11/22 12:34:34;;;;;;;1.13;1.03;;;9.00;69.40;;;;;;4907021;29;20762;-42
2021/11/22 12:37:20;;;;;;;0.60;0.60;;;9.00;68.60;;;;;;4904331;29;20465;-41
2021/11/22 12:39:47;;;;;;;0.80;0.67;;;9.00;67.90;;;;;;4909171;29;20468;-42
2021/11/22 12:42:17;;;;;;;1.17;0.83;;;9.00;67.80;;;;;;4874635;29;20809;-42
2021/11/22 12:45:10;;;;;;;0.83;0.50;;;9.00;67.30;;;;;;4908261;29;21006;-42
2021/11/22 12:47:38;;;;;;;0.57;0.53;;;9.00;67.40;;;;;;4886195;29;20848;-41
2021/11/22 12:50:17;;;;;;;1.10;0.80;;;9.00;67.40;;;;;;4904897;29;20495;-42
2021/11/22 12:53:13;;;;;;;0.57;0.57;;;9.00;67.50;;;;;;4908563;29;20473;-42
2021/11/22 12:55:47;;;;;;;0.47;0.47;;;8.90;67.30;;;;;;4905410;29;20496;-42
2021/11/22 12:58:19;;;;;;;0.40;0.40;;;9.00;67.90;;;;;;4908388;29;20816;-42
2021/11/22 13:00:46;;;;;;;0.60;0.60;;;8.90;67.50;;;;;;4899223;29;20504;-42
2021/11/22 13:03:16;;;;;;;0.80;0.77;;;8.90;67.20;;;;;;4890358;29;20989;-42
2021/11/22 13:06:09;;;;;;;1.03;0.50;;;8.90;67.40;;;;;;4904617;29;20461;-42
2021/11/22 13:08:38;;;;;;;0.70;0.60;;;8.90;67.00;;;;;;4889372;29;20481;-42
2021/11/22 13:11:17;;;;;;;0.60;0.60;;;8.90;67.90;;;;;;4906357;29;20481;-42